createdAt,value
2023-03-08T00:01:25.480Z,5.10
2023-03-08T00:03:58.294Z,7.07
2023-03-08T00:06:29.765Z,3.87
2023-03-08T00:09:01.911Z,9.50
2023-03-08T00:11:33.209Z,7.93
2023-03-08T00:14:04.487Z,5.43
2023-03-08T00:16:35.771Z,4.73
2023-03-08T00:19:07.102Z,4.83
2023-03-08T00:21:38.420Z,4.43
2023-03-08T00:24:11.809Z,4.97
2023-03-08T00:26:43.734Z,6.67
2023-03-08T00:29:15.091Z,4.10
2023-03-08T00:31:46.500Z,4.07
2023-03-08T00:34:18.231Z,7.30
2023-03-08T00:36:49.517Z,8.20
2023-03-08T00:39:20.791Z,6.53
2023-03-08T00:41:52.151Z,3.10
2023-03-08T00:44:23.524Z,6.53
2023-03-08T00:46:55.061Z,5.57
2023-03-08T00:49:26.448Z,7.33
2023-03-08T00:51:57.723Z,5.83
2023-03-08T00:54:32.406Z,4.73
2023-03-08T00:57:03.875Z,6.03
2023-03-08T00:59:35.229Z,6.53
2023-03-08T01:02:06.816Z,14.10
2023-03-08T01:04:38.168Z,3.97
2023-03-08T01:07:09.435Z,6.27
2023-03-08T01:09:40.702Z,5.53
2023-03-08T01:12:11.965Z,5.60
2023-03-08T01:14:43.476Z,6.77
2023-03-08T01:17:14.788Z,7.40
2023-03-08T01:19:46.053Z,5.93
2023-03-08T01:22:17.316Z,5.10
2023-03-08T01:24:49.269Z,10.37
2023-03-08T01:27:20.538Z,7.10
2023-03-08T01:29:51.829Z,14.60
2023-03-08T01:32:23.240Z,7.33
2023-03-08T01:34:55.446Z,8.00
2023-03-08T01:37:26.716Z,7.43
2023-03-08T01:39:58.307Z,8.63
2023-03-08T01:42:29.811Z,8.97
2023-03-08T01:45:03.651Z,5.37
2023-03-08T01:47:36.075Z,7.77
2023-03-08T01:50:12.791Z,7.87
2023-03-08T01:52:51.574Z,9.47
2023-03-08T01:55:22.940Z,9.37
2023-03-08T01:57:55.987Z,9.90
2023-03-08T02:00:27.632Z,9.73
2023-03-08T02:03:06.188Z,14.10
2023-03-08T02:05:41.890Z,11.90
2023-03-08T02:08:13.193Z,17.65
2023-03-08T02:10:44.707Z,11.93
2023-03-08T02:13:17.324Z,11.70
2023-03-08T02:15:51.721Z,10.70
2023-03-08T02:18:23.265Z,12.30
2023-03-08T02:20:54.576Z,12.53
2023-03-08T02:23:26.068Z,15.57
2023-03-08T02:26:02.458Z,19.37
2023-03-08T02:31:06.254Z,15.27
2023-03-08T02:33:37.656Z,18.07
2023-03-08T02:36:09.697Z,23.10
2023-03-08T02:38:41.167Z,19.37
2023-03-08T02:41:12.430Z,18.03
2023-03-08T02:43:43.744Z,17.57
2023-03-08T02:46:15.163Z,18.87
2023-03-08T02:48:46.532Z,18.87
2023-03-08T02:51:17.805Z,22.93
2023-03-08T02:53:49.181Z,13.40
2023-03-08T02:56:20.763Z,16.87
2023-03-08T02:58:52.037Z,17.43
2023-03-08T03:01:23.758Z,16.30
2023-03-08T03:03:55.361Z,19.83
2023-03-08T03:06:26.693Z,17.57
2023-03-08T03:08:58.074Z,20.23
2023-03-08T03:11:29.328Z,19.60
2023-03-08T03:14:01.081Z,16.97
2023-03-08T03:16:32.513Z,16.57
2023-03-08T03:19:04.228Z,14.67
2023-03-08T03:21:35.643Z,18.10
2023-03-08T03:24:07.475Z,11.63
2023-03-08T03:26:38.999Z,11.97
2023-03-08T03:29:10.317Z,11.73
2023-03-08T03:31:41.772Z,12.10
2023-03-08T03:34:13.039Z,9.63
2023-03-08T03:36:44.313Z,14.40
2023-03-08T03:39:15.754Z,10.37
2023-03-08T03:41:47.010Z,9.30
2023-03-08T03:44:18.283Z,14.20
2023-03-08T03:46:49.693Z,13.60
2023-03-08T03:49:21.088Z,7.77
2023-03-08T03:51:52.366Z,9.60
2023-03-08T03:54:23.739Z,12.53
2023-03-08T03:56:58.059Z,7.40
2023-03-08T03:59:29.339Z,9.30
2023-03-08T04:02:00.631Z,10.83
2023-03-08T04:04:31.905Z,9.37
2023-03-08T04:07:03.288Z,12.43
2023-03-08T04:09:35.760Z,10.43
2023-03-08T04:12:07.268Z,8.70
2023-03-08T04:14:40.230Z,7.93
2023-03-08T04:17:11.510Z,13.90
2023-03-08T04:19:42.832Z,16.23
2023-03-08T04:22:14.096Z,10.10
2023-03-08T04:24:45.389Z,13.63
2023-03-08T04:27:16.660Z,12.57
2023-03-08T04:29:47.989Z,14.90
2023-03-08T04:32:19.299Z,9.90
2023-03-08T04:34:50.640Z,10.43
2023-03-08T04:37:22.024Z,9.80
2023-03-08T04:39:53.296Z,10.97
2023-03-08T04:42:24.667Z,13.10
2023-03-08T04:44:55.948Z,12.13
2023-03-08T04:47:27.215Z,12.77
2023-03-08T04:49:58.556Z,12.23
2023-03-08T04:52:29.851Z,11.63
2023-03-08T04:55:01.245Z,12.10
2023-03-08T04:57:32.532Z,11.40
2023-03-08T05:00:05.793Z,7.37
2023-03-08T05:02:37.129Z,10.40
2023-03-08T05:05:08.665Z,10.47
2023-03-08T05:07:40.062Z,9.17
2023-03-08T05:10:11.605Z,8.67
2023-03-08T05:12:42.963Z,8.80
2023-03-08T05:15:14.338Z,6.73
2023-03-08T05:17:45.692Z,8.13
2023-03-08T05:20:17.921Z,10.73
2023-03-08T05:22:58.531Z,8.87
2023-03-08T05:25:31.353Z,7.93
2023-03-08T05:28:02.725Z,10.23
2023-03-08T05:30:33.994Z,9.27
2023-03-08T05:33:05.300Z,9.80
2023-03-08T05:35:36.636Z,8.53
2023-03-08T05:38:08.110Z,8.00
2023-03-08T05:40:39.443Z,8.37
2023-03-08T05:43:10.709Z,9.87
2023-03-08T05:45:42.244Z,10.40
2023-03-08T05:48:13.550Z,9.17
2023-03-08T05:50:44.809Z,11.03
2023-03-08T05:53:16.084Z,7.60
2023-03-08T05:55:47.589Z,11.73
2023-03-08T05:58:18.927Z,9.97
2023-03-08T06:00:50.193Z,12.40
2023-03-08T06:03:21.521Z,11.23
2023-03-08T06:05:52.820Z,10.17
2023-03-08T06:08:24.088Z,8.10
2023-03-08T06:10:55.359Z,10.10
2023-03-08T06:13:26.638Z,10.03
2023-03-08T06:15:59.799Z,10.70
2023-03-08T06:18:31.897Z,9.20
2023-03-08T06:21:12.259Z,14.00
2023-03-08T06:23:45.620Z,10.33
2023-03-08T06:26:17.032Z,12.50
2023-03-08T06:28:48.292Z,9.07
2023-03-08T06:31:20.645Z,10.17
2023-03-08T06:33:51.923Z,9.53
2023-03-08T06:36:23.419Z,16.27
2023-03-08T06:38:54.713Z,9.77
2023-03-08T06:41:26.022Z,8.83
2023-03-08T06:43:57.816Z,13.67
2023-03-08T06:46:29.272Z,9.20
2023-03-08T06:49:01.285Z,10.63
2023-03-08T06:51:32.568Z,12.67
2023-03-08T06:54:04.496Z,9.27
2023-03-08T06:56:35.785Z,9.13
2023-03-08T06:59:07.042Z,9.47
2023-03-08T07:01:38.469Z,11.87
2023-03-08T07:04:09.831Z,9.63
2023-03-08T07:06:41.142Z,9.53
2023-03-08T07:09:13.670Z,10.17
2023-03-08T07:11:45.023Z,9.20
2023-03-08T07:14:16.382Z,16.70
2023-03-08T07:16:48.520Z,9.67
2023-03-08T07:19:20.052Z,12.13
2023-03-08T07:21:51.337Z,9.40
2023-03-08T07:24:22.596Z,13.03
2023-03-08T07:26:53.852Z,10.80
2023-03-08T07:29:25.134Z,14.97
2023-03-08T07:31:56.487Z,10.87
2023-03-08T07:34:27.844Z,8.33
2023-03-08T07:36:59.105Z,16.50
2023-03-08T07:39:30.471Z,8.90
2023-03-08T07:42:01.805Z,10.40
2023-03-08T07:44:33.127Z,8.10
2023-03-08T07:47:08.263Z,10.07
2023-03-08T07:49:39.552Z,9.67
2023-03-08T07:52:10.928Z,9.30
2023-03-08T07:54:43.738Z,11.27
2023-03-08T07:57:15.588Z,9.17
2023-03-08T07:59:46.861Z,13.57
2023-03-08T08:02:18.228Z,11.90
2023-03-08T08:04:50.647Z,11.20
2023-03-08T08:07:22.039Z,10.97
2023-03-08T08:09:54.111Z,8.57
2023-03-08T08:12:25.391Z,9.47
2023-03-08T08:14:56.706Z,9.93
2023-03-08T08:17:27.972Z,10.73
2023-03-08T08:19:59.657Z,10.37
2023-03-08T08:22:30.929Z,12.00
2023-03-08T08:25:04.859Z,9.07
2023-03-08T08:27:36.398Z,14.17
2023-03-08T08:30:08.381Z,8.77
2023-03-08T08:32:40.032Z,11.17
2023-03-08T08:35:11.406Z,10.03
2023-03-08T08:37:42.713Z,7.93
2023-03-08T08:40:14.117Z,14.80
2023-03-08T08:42:46.501Z,8.40
2023-03-08T08:45:17.879Z,8.97
2023-03-08T08:47:49.137Z,9.47
2023-03-08T08:50:20.391Z,10.00
2023-03-08T08:52:51.693Z,8.70
2023-03-08T08:55:23.031Z,8.47
2023-03-08T08:57:54.289Z,7.40
2023-03-08T09:00:26.174Z,7.87
2023-03-08T09:02:57.436Z,8.90
2023-03-08T09:05:29.088Z,7.43
2023-03-08T09:08:01.241Z,9.97
2023-03-08T09:10:34.636Z,8.17
2023-03-08T09:13:06.647Z,6.93
2023-03-08T09:15:37.955Z,7.30
2023-03-08T09:18:09.305Z,5.60
2023-03-08T09:20:40.698Z,7.73
2023-03-08T09:23:11.979Z,8.57
2023-03-08T09:25:43.352Z,6.13
2023-03-08T09:28:14.749Z,5.60
2023-03-08T09:30:46.025Z,5.40
2023-03-08T09:33:17.671Z,6.10
2023-03-08T09:35:59.478Z,5.53
2023-03-08T09:38:30.817Z,7.30
2023-03-08T09:41:05.050Z,6.13
2023-03-08T09:44:03.503Z,5.53
2023-03-08T09:46:40.807Z,6.00
2023-03-08T09:49:19.248Z,5.93
2023-03-08T09:51:57.279Z,6.70
2023-03-08T09:54:29.216Z,5.03
2023-03-08T09:57:06.690Z,5.80
2023-03-08T09:59:45.416Z,5.87
2023-03-08T10:02:31.883Z,4.77
2023-03-08T10:05:21.638Z,5.25
2023-03-08T10:08:02.797Z,8.73
2023-03-08T10:10:47.484Z,6.57
2023-03-08T10:13:36.065Z,6.07
2023-03-08T10:16:24.987Z,5.47
2023-03-08T10:19:02.506Z,5.40
2023-03-08T10:21:37.953Z,5.40
2023-03-08T10:24:26.537Z,6.82
2023-03-08T10:27:15.097Z,11.63
2023-03-08T10:29:58.395Z,7.20
2023-03-08T10:32:29.770Z,6.13
2023-03-08T10:35:04.781Z,6.93
2023-03-08T10:37:36.451Z,5.90
2023-03-08T10:40:10.923Z,5.93
2023-03-08T10:43:05.992Z,6.10
2023-03-08T10:45:37.341Z,6.57
2023-03-08T10:48:19.990Z,6.10
2023-03-08T10:51:00.035Z,4.53
2023-03-08T10:53:32.641Z,5.13
2023-03-08T10:56:04.273Z,7.33
2023-03-08T10:58:39.392Z,5.67
2023-03-08T11:01:28.928Z,6.03
2023-03-08T11:04:16.865Z,4.33
2023-03-08T11:06:48.493Z,6.63
2023-03-08T11:09:28.413Z,5.03
2023-03-08T11:12:00.599Z,6.03
2023-03-08T11:14:31.947Z,5.33
2023-03-08T11:17:12.092Z,7.67
2023-03-08T11:19:49.355Z,5.97
2023-03-08T11:22:38.324Z,5.33
2023-03-08T11:25:09.554Z,4.33
2023-03-08T11:28:05.833Z,7.33
2023-03-08T11:30:51.126Z,5.22
2023-03-08T11:33:28.718Z,5.97
2023-03-08T11:36:13.458Z,5.50
2023-03-08T11:38:53.009Z,9.83
2023-03-08T11:41:42.432Z,6.40
2023-03-08T11:44:33.471Z,5.13
2023-03-08T11:47:26.239Z,6.50
2023-03-08T11:50:20.918Z,3.90
2023-03-08T11:53:26.185Z,4.73
2023-03-08T11:56:09.586Z,5.50
2023-03-08T11:59:09.032Z,4.23
2023-03-08T12:02:08.067Z,7.03
2023-03-08T12:04:51.981Z,4.57
2023-03-08T12:07:35.403Z,8.17
2023-03-08T12:10:12.832Z,9.60
2023-03-08T12:12:51.186Z,3.63
2023-03-08T12:15:35.522Z,4.00
2023-03-08T12:18:21.049Z,5.90
2023-03-08T12:21:02.840Z,7.23
2023-03-08T12:23:43.353Z,7.47
2023-03-08T12:26:21.919Z,3.73
2023-03-08T12:28:59.900Z,6.07
2023-03-08T12:31:40.779Z,4.37
2023-03-08T12:34:24.957Z,3.97
2023-03-08T12:36:56.663Z,3.67
2023-03-08T12:39:34.007Z,3.60
2023-03-08T12:42:08.461Z,5.93
2023-03-08T12:44:40.417Z,4.87
2023-03-08T12:47:11.662Z,3.07
2023-03-08T12:49:46.974Z,3.87
2023-03-08T12:52:18.349Z,5.93
2023-03-08T12:55:01.083Z,3.73
2023-03-08T12:57:45.971Z,4.87
2023-03-08T13:00:20.434Z,5.20
2023-03-08T13:03:06.400Z,5.53
2023-03-08T13:05:40.004Z,5.47
2023-03-08T13:08:14.296Z,6.57
2023-03-08T13:11:04.113Z,4.30
2023-03-08T13:13:58.055Z,3.97
2023-03-08T13:16:35.504Z,6.30
2023-03-08T13:19:15.870Z,4.23
2023-03-08T13:21:53.798Z,7.43
2023-03-08T13:24:36.225Z,4.93
2023-03-08T13:27:35.869Z,4.13
2023-03-08T13:30:35.465Z,3.10
2023-03-08T13:33:12.324Z,6.40
2023-03-08T13:35:43.654Z,2.47
2023-03-08T13:38:22.724Z,5.03
2023-03-08T13:40:55.786Z,4.80
2023-03-08T13:43:30.044Z,5.27
2023-03-08T13:46:10.671Z,4.10
2023-03-08T13:48:44.295Z,4.57
2023-03-08T13:51:18.872Z,5.73
2023-03-08T13:53:50.348Z,4.60
2023-03-08T13:56:27.766Z,4.00
2023-03-08T13:59:00.523Z,3.97
2023-03-08T14:01:31.950Z,2.97
2023-03-08T14:04:11.177Z,5.07
2023-03-08T14:06:49.213Z,3.73
2023-03-08T14:09:21.119Z,3.97
2023-03-08T14:11:57.474Z,3.97
2023-03-08T14:14:33.632Z,2.33
2023-03-08T14:17:05.175Z,4.43
2023-03-08T14:19:40.139Z,1.73
2023-03-08T14:22:28.697Z,2.87
2023-03-08T14:25:22.401Z,2.97
2023-03-08T14:27:54.225Z,4.32
2023-03-08T14:30:28.256Z,5.83
2023-03-08T14:33:02.681Z,2.90
2023-03-08T14:35:39.811Z,2.33
2023-03-08T14:38:22.622Z,3.00
2023-03-08T14:40:54.925Z,9.53
2023-03-08T14:43:27.307Z,2.83
2023-03-08T14:46:07.182Z,2.93
2023-03-08T14:48:38.586Z,1.47
2023-03-08T14:51:19.911Z,2.27
2023-03-08T14:54:06.498Z,3.10
2023-03-08T14:56:37.855Z,2.65
2023-03-08T14:59:14.016Z,2.77
2023-03-08T15:01:53.077Z,5.43
2023-03-08T15:04:25.628Z,3.03
2023-03-08T15:06:57.414Z,2.67
2023-03-08T15:09:29.963Z,2.90
2023-03-08T15:12:01.513Z,2.63
2023-03-08T15:14:32.845Z,2.20
2023-03-08T15:17:04.227Z,2.23
2023-03-08T15:19:35.747Z,3.20
2023-03-08T15:22:07.122Z,3.07
2023-03-08T15:24:39.361Z,3.20
2023-03-08T15:27:15.602Z,4.80
2023-03-08T15:32:18.239Z,4.10
2023-03-08T15:34:49.809Z,4.27
2023-03-08T15:37:21.359Z,6.13
2023-03-08T15:39:52.659Z,4.77
2023-03-08T15:42:24.003Z,3.90
2023-03-08T15:44:55.278Z,5.53
2023-03-08T15:47:27.175Z,4.57
2023-03-08T15:49:58.507Z,2.33
2023-03-08T15:52:31.033Z,2.53
2023-03-08T15:55:03.820Z,3.17
2023-03-08T15:57:37.450Z,3.03
2023-03-08T16:00:13.947Z,2.13
2023-03-08T16:02:45.335Z,3.27
2023-03-08T16:05:19.528Z,2.10
2023-03-08T16:07:59.835Z,2.13
2023-03-08T16:10:40.262Z,3.10
2023-03-08T16:13:11.654Z,4.60
2023-03-08T16:15:43.069Z,4.63
2023-03-08T16:18:14.511Z,9.63
2023-03-08T16:20:46.352Z,4.47
2023-03-08T16:23:17.680Z,4.13
2023-03-08T16:26:13.544Z,2.40
2023-03-08T16:31:20.830Z,2.07
2023-03-08T16:33:52.160Z,5.07
2023-03-08T16:36:23.436Z,2.90
2023-03-08T16:38:56.583Z,2.97
2023-03-08T16:41:29.932Z,3.53
2023-03-08T16:44:01.321Z,3.30
2023-03-08T16:46:33.532Z,3.00
2023-03-08T16:49:04.842Z,1.93
2023-03-08T16:51:38.499Z,1.63
2023-03-08T16:54:13.481Z,3.30
2023-03-08T16:56:44.836Z,7.97
2023-03-08T16:59:17.164Z,2.67
2023-03-08T17:01:49.828Z,3.73
2023-03-08T17:04:22.643Z,1.67
2023-03-08T17:06:53.977Z,2.60
2023-03-08T17:09:25.411Z,4.20
2023-03-08T17:11:57.787Z,2.27
2023-03-08T17:14:29.174Z,3.23
2023-03-08T17:17:00.542Z,4.13
2023-03-08T17:19:32.736Z,4.83
2023-03-08T17:22:05.196Z,2.33
2023-03-08T17:24:36.464Z,1.73
2023-03-08T17:27:07.793Z,3.33
2023-03-08T17:29:39.081Z,6.47
2023-03-08T17:32:10.391Z,4.10
2023-03-08T17:34:41.711Z,4.33
2023-03-08T17:37:13.022Z,3.50
2023-03-08T17:39:44.567Z,3.43
2023-03-08T17:42:15.953Z,2.90
2023-03-08T17:44:47.369Z,3.10
2023-03-08T17:47:18.752Z,3.27
2023-03-08T17:49:50.304Z,2.63
2023-03-08T17:52:22.681Z,5.27
2023-03-08T17:54:56.947Z,3.10
2023-03-08T17:57:28.233Z,5.80
2023-03-08T17:59:59.593Z,3.53
2023-03-08T18:02:31.249Z,3.63
2023-03-08T18:05:02.608Z,6.27
2023-03-08T18:07:34.066Z,7.33
2023-03-08T18:10:06.361Z,2.80
2023-03-08T18:12:37.736Z,4.20
2023-03-08T18:15:09.664Z,4.27
2023-03-08T18:17:41.388Z,6.07
2023-03-08T18:20:12.797Z,5.80
2023-03-08T18:22:47.020Z,4.27
2023-03-08T18:25:19.325Z,5.63
2023-03-08T18:27:50.711Z,5.50
2023-03-08T18:30:22.044Z,10.07
2023-03-08T18:32:53.328Z,4.10
2023-03-08T18:35:24.797Z,6.27
2023-03-08T18:37:56.093Z,5.47
2023-03-08T18:40:29.350Z,5.00
2023-03-08T18:43:01.017Z,9.27
2023-03-08T18:45:32.317Z,6.60
2023-03-08T18:48:03.587Z,4.43
2023-03-08T18:50:34.827Z,5.20
2023-03-08T18:53:06.108Z,4.90
2023-03-08T18:55:37.509Z,6.00
2023-03-08T18:58:08.809Z,5.47
2023-03-08T19:00:40.154Z,5.03
2023-03-08T19:03:11.429Z,7.87
2023-03-08T19:05:43.093Z,5.80
2023-03-08T19:08:14.589Z,4.80
2023-03-08T19:10:46.057Z,5.60
2023-03-08T19:13:17.435Z,4.83
2023-03-08T19:15:48.703Z,8.50
2023-03-08T19:18:19.984Z,6.40
2023-03-08T19:20:51.448Z,5.73
2023-03-08T19:23:22.752Z,4.77
2023-03-08T19:26:12.688Z,6.40
2023-03-08T19:28:44.035Z,5.63
2023-03-08T19:31:17.177Z,7.00
2023-03-08T19:33:49.716Z,6.33
2023-03-08T19:36:21.042Z,6.03
2023-03-08T19:38:52.519Z,7.67
2023-03-08T19:41:24.302Z,6.87
2023-03-08T19:43:55.587Z,6.53
2023-03-08T19:46:26.884Z,9.87
2023-03-08T19:48:58.208Z,7.27
2023-03-08T19:51:29.548Z,9.17
2023-03-08T19:54:00.960Z,4.60
2023-03-08T19:56:33.252Z,5.60
2023-03-08T19:59:04.612Z,7.00
2023-03-08T20:01:36.526Z,6.03
2023-03-08T20:04:10.077Z,5.33
2023-03-08T20:06:46.332Z,9.47
2023-03-08T20:11:57.325Z,7.37
2023-03-08T20:14:29.711Z,7.50
2023-03-08T20:17:01.795Z,6.60
2023-03-08T20:19:34.058Z,8.30
2023-03-08T20:22:05.958Z,5.80
2023-03-08T20:24:37.225Z,6.50
2023-03-08T20:27:11.232Z,7.23
2023-03-08T20:29:42.509Z,7.73
2023-03-08T20:32:14.497Z,9.03
2023-03-08T20:34:45.854Z,7.97
2023-03-08T20:37:17.140Z,8.30
2023-03-08T20:39:52.378Z,19.13
2023-03-08T20:42:23.752Z,6.07
2023-03-08T20:44:55.156Z,7.17
2023-03-08T20:47:26.682Z,5.23
2023-03-08T20:49:58.253Z,7.40
2023-03-08T20:52:29.586Z,5.37
2023-03-08T20:55:00.855Z,6.80
2023-03-08T20:57:32.217Z,7.27
2023-03-08T21:00:04.998Z,7.47
2023-03-08T21:02:36.834Z,5.93
2023-03-08T21:05:08.473Z,6.17
2023-03-08T21:07:40.096Z,7.77
2023-03-08T21:10:11.373Z,7.43
2023-03-08T21:12:42.766Z,7.23
2023-03-08T21:15:14.057Z,9.53
2023-03-08T21:17:45.320Z,8.83
2023-03-08T21:20:16.807Z,6.87
2023-03-08T21:22:48.077Z,5.57
2023-03-08T21:25:19.397Z,5.70
2023-03-08T21:27:50.679Z,9.60
2023-03-08T21:30:22.332Z,4.70
2023-03-08T21:32:53.662Z,6.80
2023-03-08T21:35:25.017Z,5.97
2023-03-08T21:37:56.290Z,6.20
2023-03-08T21:40:27.583Z,8.37
2023-03-08T21:42:58.850Z,8.13
2023-03-08T21:45:30.245Z,9.43
2023-03-08T21:48:01.503Z,7.90
2023-03-08T21:50:33.486Z,7.77
2023-03-08T21:53:04.818Z,7.77
2023-03-08T21:55:39.996Z,7.17
2023-03-08T21:58:11.277Z,6.67
2023-03-08T22:00:42.571Z,7.83
2023-03-08T22:03:13.885Z,7.63
2023-03-08T22:05:45.308Z,5.47
2023-03-08T22:08:16.776Z,9.87
2023-03-08T22:10:48.610Z,9.17
2023-03-08T22:13:20.469Z,7.80
2023-03-08T22:15:51.805Z,7.07
2023-03-08T22:18:23.122Z,6.90
2023-03-08T22:20:54.990Z,6.83
2023-03-08T22:23:27.001Z,7.43
2023-03-08T22:25:58.315Z,7.60
2023-03-08T22:28:29.628Z,10.67
2023-03-08T22:31:00.935Z,6.00
2023-03-08T22:33:32.188Z,7.47
2023-03-08T22:36:08.489Z,7.90
2023-03-08T22:38:40.409Z,8.65
2023-03-08T22:41:17.272Z,6.97
2023-03-08T22:43:49.413Z,7.27
2023-03-08T22:46:23.454Z,6.27
2023-03-08T22:48:57.478Z,7.53
2023-03-08T22:51:28.839Z,9.33
2023-03-08T22:54:04.030Z,9.03
2023-03-08T22:56:35.450Z,9.63
2023-03-08T22:59:06.709Z,9.10
2023-03-08T23:01:39.114Z,8.07
2023-03-08T23:04:12.566Z,10.30
2023-03-08T23:06:44.218Z,10.63
2023-03-08T23:09:16.989Z,7.90
2023-03-08T23:11:48.665Z,8.93
2023-03-08T23:14:19.955Z,15.60
2023-03-08T23:16:51.558Z,8.00
2023-03-08T23:19:22.924Z,7.60
2023-03-08T23:21:54.208Z,5.80
2023-03-08T23:24:25.500Z,8.63
2023-03-08T23:27:01.658Z,8.17
2023-03-08T23:29:33.053Z,8.02
2023-03-08T23:32:04.711Z,7.83
2023-03-08T23:34:36.609Z,10.20
2023-03-08T23:37:08.056Z,9.97
2023-03-08T23:39:39.350Z,10.57
2023-03-08T23:42:10.607Z,13.33
2023-03-08T23:44:41.967Z,10.30
2023-03-08T23:47:13.281Z,10.17
2023-03-08T23:49:44.689Z,10.80
2023-03-08T23:52:15.954Z,12.47
2023-03-08T23:54:47.385Z,12.80
2023-03-08T23:57:19.020Z,11.23
2023-03-08T23:59:50.297Z,11.37
